createdAt,value
2019-04-07T00:01:00.057Z,34.43
2019-04-07T00:02:04.501Z,34.40
2019-04-07T00:03:08.724Z,35.07
2019-04-07T00:04:12.977Z,35.57
2019-04-07T00:05:17.331Z,35.50
2019-04-07T00:06:21.651Z,35.13
2019-04-07T00:07:26.340Z,36.63
2019-04-07T00:08:31.193Z,35.90
2019-04-07T00:09:35.608Z,36.43
2019-04-07T00:10:40.180Z,34.37
2019-04-07T00:11:45.184Z,35.77
2019-04-07T00:12:49.851Z,35.53
2019-04-07T00:13:54.127Z,35.67
2019-04-07T00:14:58.391Z,36.63
2019-04-07T00:16:02.607Z,35.37
2019-04-07T00:17:06.834Z,34.93
2019-04-07T00:18:11.063Z,36.10
2019-04-07T00:19:15.681Z,36.83
2019-04-07T00:20:19.961Z,34.23
2019-04-07T00:21:24.189Z,36.23
2019-04-07T00:22:28.410Z,35.37
2019-04-07T00:23:32.935Z,35.63
2019-04-07T00:24:37.675Z,35.30
2019-04-07T00:25:41.898Z,35.70
2019-04-07T00:26:46.129Z,35.90
2019-04-07T00:27:50.350Z,35.03
2019-04-07T00:28:54.585Z,36.53
2019-04-07T00:29:59.925Z,35.50
2019-04-07T00:31:04.202Z,35.13
2019-04-07T00:32:08.554Z,35.10
2019-04-07T00:33:13.313Z,36.37
2019-04-07T00:34:17.571Z,36.10
2019-04-07T00:35:27.633Z,34.80
2019-04-07T00:36:27.931Z,35.10
2019-04-07T00:37:32.744Z,36.50
2019-04-07T00:38:37.054Z,34.97
2019-04-07T00:39:41.380Z,37.27
2019-04-07T00:40:45.736Z,35.50
2019-04-07T00:41:49.963Z,36.20
2019-04-07T00:42:54.488Z,37.90
2019-04-07T00:43:59.435Z,35.57
2019-04-07T00:45:04.393Z,36.57
2019-04-07T00:46:09.203Z,36.40
2019-04-07T00:47:14.018Z,36.47
2019-04-07T00:48:18.432Z,36.07
2019-04-07T00:49:22.670Z,36.97
2019-04-07T00:50:28.643Z,36.60
2019-04-07T00:51:33.252Z,37.00
2019-04-07T00:52:37.630Z,38.50
2019-04-07T00:53:41.878Z,35.63
2019-04-07T00:54:46.124Z,37.77
2019-04-07T00:55:50.387Z,37.40
2019-04-07T00:56:54.616Z,37.77
2019-04-07T00:57:59.437Z,37.30
2019-04-07T00:59:04.280Z,37.07
2019-04-07T01:00:09.677Z,36.90
2019-04-07T01:01:16.536Z,38.90
2019-04-07T01:02:21.265Z,37.80
2019-04-07T01:03:26.013Z,38.63
2019-04-07T01:04:30.692Z,37.43
2019-04-07T01:05:38.498Z,39.00
2019-04-07T01:06:40.865Z,37.07
2019-04-07T01:07:45.205Z,36.23
2019-04-07T01:08:49.568Z,36.73
2019-04-07T01:09:54.121Z,37.23
2019-04-07T01:10:58.351Z,37.47
2019-04-07T01:12:02.903Z,36.07
2019-04-07T01:13:07.712Z,36.70
2019-04-07T01:14:12.409Z,36.97
2019-04-07T01:15:16.729Z,36.20
2019-04-07T01:16:21.189Z,36.20
2019-04-07T01:17:25.437Z,37.30
2019-04-07T01:18:31.944Z,36.63
2019-04-07T01:19:36.605Z,37.07
2019-04-07T01:20:40.989Z,37.93
2019-04-07T01:21:45.736Z,36.83
2019-04-07T01:22:50.139Z,37.17
2019-04-07T01:23:54.489Z,37.27
2019-04-07T01:24:58.748Z,37.50
2019-04-07T01:26:03.206Z,36.20
2019-04-07T01:27:07.435Z,36.53
2019-04-07T01:28:12.096Z,35.73
2019-04-07T01:29:16.816Z,37.33
2019-04-07T01:30:21.422Z,38.27
2019-04-07T01:31:25.847Z,38.80
2019-04-07T01:32:30.121Z,38.40
2019-04-07T01:33:34.363Z,38.17
2019-04-07T01:34:38.589Z,38.93
2019-04-07T01:35:48.067Z,38.77
2019-04-07T01:36:49.183Z,38.37
2019-04-07T01:37:53.384Z,40.07
2019-04-07T01:38:57.615Z,37.57
2019-04-07T01:40:02.402Z,37.47
2019-04-07T01:41:26.474Z,38.00
2019-04-07T01:42:49.899Z,36.33
2019-04-07T01:44:02.707Z,36.90
2019-04-07T01:45:34.694Z,35.77
2019-04-07T01:47:13.476Z,37.70
2019-04-07T01:48:33.655Z,36.90
2019-04-07T01:49:55.692Z,37.33
2019-04-07T01:51:21.678Z,35.93
2019-04-07T01:52:38.112Z,36.47
2019-04-07T01:54:13.332Z,36.70
2019-04-07T01:55:36.504Z,36.63
2019-04-07T01:56:56.574Z,37.97
2019-04-07T01:58:16.164Z,36.87
2019-04-07T01:59:39.178Z,39.53
2019-04-07T02:01:02.878Z,36.47
2019-04-07T02:02:32.454Z,37.30
2019-04-07T02:03:54.439Z,37.00
2019-04-07T02:05:16.561Z,38.20
2019-04-07T02:06:40.917Z,37.23
2019-04-07T02:07:52.370Z,38.83
2019-04-07T02:09:01.885Z,38.03
2019-04-07T02:10:37.485Z,37.80
2019-04-07T02:12:06.972Z,37.90
2019-04-07T02:13:22.048Z,37.40
2019-04-07T02:14:54.890Z,38.03
2019-04-07T02:16:05.362Z,38.70
2019-04-07T02:17:17.693Z,40.87
2019-04-07T02:18:50.778Z,39.40
2019-04-07T02:20:10.323Z,39.97
2019-04-07T02:21:25.033Z,38.43
2019-04-07T02:22:39.749Z,38.27
2019-04-07T02:24:01.635Z,40.30
2019-04-07T02:25:25.231Z,41.03
2019-04-07T02:26:57.653Z,37.83
2019-04-07T02:28:20.373Z,40.60
2019-04-07T02:29:50.039Z,40.17
2019-04-07T02:31:12.204Z,38.53
2019-04-07T02:32:22.752Z,36.97
2019-04-07T02:33:47.076Z,39.93
2019-04-07T02:34:59.253Z,51.03
2019-04-07T02:36:21.551Z,69.23
2019-04-07T02:37:37.013Z,51.60
2019-04-07T02:38:54.737Z,44.87
2019-04-07T02:40:06.948Z,40.47
2019-04-07T02:41:46.517Z,41.53
2019-04-07T02:43:08.548Z,38.53
2019-04-07T02:44:27.751Z,40.40
2019-04-07T02:45:47.131Z,39.97
2019-04-07T02:47:14.732Z,40.37
2019-04-07T02:48:41.299Z,40.53
2019-04-07T02:50:01.661Z,39.40
2019-04-07T02:51:38.372Z,39.63
2019-04-07T02:52:59.417Z,38.97
2019-04-07T02:54:22.827Z,38.33
2019-04-07T02:55:55.076Z,40.13
2019-04-07T02:57:11.765Z,38.53
2019-04-07T02:58:38.046Z,38.33
2019-04-07T03:00:05.226Z,38.17
2019-04-07T03:01:41.344Z,38.37
2019-04-07T03:03:03.319Z,38.70
2019-04-07T03:04:17.849Z,39.13
2019-04-07T03:05:41.097Z,39.60
2019-04-07T03:06:53.455Z,39.37
2019-04-07T03:08:04.293Z,40.73
2019-04-07T03:09:31.094Z,39.57
2019-04-07T03:10:53.438Z,38.67
2019-04-07T03:12:19.756Z,39.27
2019-04-07T03:13:46.472Z,39.83
2019-04-07T03:15:05.436Z,36.97
2019-04-07T03:16:33.180Z,40.30
2019-04-07T03:17:43.798Z,39.43
2019-04-07T03:18:56.620Z,38.50
2019-04-07T03:20:18.867Z,39.10
2019-04-07T03:21:43.258Z,39.27
2019-04-07T03:23:12.917Z,39.97
2019-04-07T03:24:27.139Z,39.47
2019-04-07T03:25:54.768Z,38.73
2019-04-07T03:27:10.611Z,38.53
2019-04-07T03:28:23.100Z,40.07
2019-04-07T03:29:34.952Z,39.60
2019-04-07T03:30:59.032Z,38.83
2019-04-07T03:32:37.448Z,38.50
2019-04-07T03:34:05.673Z,39.17
2019-04-07T03:35:32.433Z,38.33
2019-04-07T03:37:18.426Z,39.93
2019-04-07T03:38:22.811Z,38.53
2019-04-07T03:39:58.792Z,39.13
2019-04-07T03:41:11.801Z,37.87
2019-04-07T03:42:28.310Z,40.13
2019-04-07T03:43:44.048Z,40.20
2019-04-07T03:45:00.769Z,41.07
2019-04-07T03:46:22.773Z,39.20
2019-04-07T03:47:41.896Z,41.53
2019-04-07T03:48:53.757Z,41.70
2019-04-07T03:50:07.154Z,39.90
2019-04-07T03:51:30.372Z,42.00
2019-04-07T03:52:45.065Z,40.83
2019-04-07T03:54:07.246Z,40.43
2019-04-07T03:55:29.804Z,41.60
2019-04-07T03:56:51.864Z,41.30
2019-04-07T03:58:14.650Z,39.40
2019-04-07T03:59:53.266Z,41.03
2019-04-07T04:01:24.062Z,36.63
2019-04-07T04:02:45.050Z,39.60
2019-04-07T04:04:20.966Z,39.37
2019-04-07T04:05:52.482Z,38.10
2019-04-07T04:07:22.453Z,36.47
2019-04-07T04:08:35.631Z,37.47
2019-04-07T04:09:50.544Z,38.63
2019-04-07T04:11:04.642Z,37.33
2019-04-07T04:12:22.985Z,37.67
2019-04-07T04:13:43.106Z,39.53
2019-04-07T04:14:55.096Z,36.67
2019-04-07T04:16:05.986Z,40.00
2019-04-07T04:17:10.427Z,38.40
2019-04-07T04:18:14.729Z,38.90
2019-04-07T04:19:18.960Z,38.90
2019-04-07T04:20:23.907Z,38.67
2019-04-07T04:21:28.843Z,38.50
2019-04-07T04:22:33.293Z,40.40
2019-04-07T04:23:40.054Z,39.10
2019-04-07T04:24:43.666Z,40.80
2019-04-07T04:25:48.917Z,37.90
2019-04-07T04:26:53.762Z,39.00
2019-04-07T04:27:59.146Z,37.43
2019-04-07T04:29:04.014Z,39.63
2019-04-07T04:30:10.247Z,39.47
2019-04-07T04:31:15.458Z,38.93
2019-04-07T04:32:21.516Z,38.80
2019-04-07T04:33:25.709Z,38.83
2019-04-07T04:34:29.925Z,38.40
2019-04-07T04:35:34.589Z,38.27
2019-04-07T04:36:38.844Z,39.00
2019-04-07T04:37:48.838Z,38.80
2019-04-07T04:38:48.959Z,39.40
2019-04-07T04:39:54.005Z,39.30
2019-04-07T04:40:58.735Z,39.83
2019-04-07T04:42:03.925Z,39.60
2019-04-07T04:43:08.953Z,39.13
2019-04-07T04:44:14.217Z,39.63
2019-04-07T04:45:18.554Z,37.63
2019-04-07T04:46:23.641Z,39.50
2019-04-07T04:47:28.138Z,40.20
2019-04-07T04:48:32.359Z,38.67
2019-04-07T04:49:37.111Z,39.40
2019-04-07T04:50:42.059Z,41.37
2019-04-07T04:51:46.302Z,38.87
2019-04-07T04:52:50.529Z,39.47
2019-04-07T04:53:54.758Z,39.07
2019-04-07T04:54:58.986Z,39.37
2019-04-07T04:56:03.244Z,38.10
2019-04-07T04:57:09.164Z,38.47
2019-04-07T04:58:13.515Z,37.57
2019-04-07T04:59:18.271Z,37.47
2019-04-07T05:00:22.581Z,38.77
2019-04-07T05:01:27.569Z,39.07
2019-04-07T05:02:32.585Z,38.13
2019-04-07T05:03:36.987Z,36.23
2019-04-07T05:04:41.937Z,37.40
2019-04-07T05:05:46.925Z,36.33
2019-04-07T05:06:51.581Z,35.23
2019-04-07T05:08:00.814Z,36.17
2019-04-07T05:09:02.185Z,38.30
2019-04-07T05:10:06.864Z,38.07
2019-04-07T05:11:11.119Z,37.07
2019-04-07T05:12:15.360Z,37.37
2019-04-07T05:13:19.882Z,37.40
2019-04-07T05:14:24.193Z,37.57
2019-04-07T05:15:28.766Z,37.97
2019-04-07T05:16:33.228Z,37.00
2019-04-07T05:17:38.135Z,37.33
2019-04-07T05:18:42.748Z,39.10
2019-04-07T05:19:47.047Z,38.30
2019-04-07T05:20:51.408Z,37.60
2019-04-07T05:21:55.889Z,39.43
2019-04-07T05:23:00.952Z,38.67
2019-04-07T05:24:05.730Z,38.93
2019-04-07T05:25:10.016Z,39.50
2019-04-07T05:26:14.725Z,37.80
2019-04-07T05:27:19.008Z,38.50
2019-04-07T05:28:23.227Z,40.33
2019-04-07T05:29:27.455Z,40.57
2019-04-07T05:30:31.721Z,38.83
2019-04-07T05:31:35.980Z,40.13
2019-04-07T05:32:40.946Z,40.20
2019-04-07T05:33:46.443Z,39.30
2019-04-07T05:34:50.744Z,39.13
2019-04-07T05:35:55.008Z,39.00
2019-04-07T05:36:59.276Z,40.13
2019-04-07T05:38:05.779Z,40.07
2019-04-07T05:39:10.224Z,38.87
2019-04-07T05:40:14.567Z,38.43
2019-04-07T05:41:18.803Z,39.90
2019-04-07T05:42:23.508Z,38.90
2019-04-07T05:43:27.791Z,38.13
2019-04-07T05:44:32.244Z,39.40
2019-04-07T05:45:37.613Z,39.57
2019-04-07T05:46:42.546Z,39.07
2019-04-07T05:47:49.407Z,39.37
2019-04-07T05:48:53.150Z,38.27
2019-04-07T05:49:59.464Z,38.03
2019-04-07T05:51:03.508Z,38.40
2019-04-07T05:52:08.484Z,38.97
2019-04-07T05:53:14.679Z,39.40
2019-04-07T05:54:19.817Z,39.27
2019-04-07T05:55:24.661Z,38.57
2019-04-07T05:56:29.474Z,37.67
2019-04-07T05:57:35.158Z,36.97
2019-04-07T05:58:41.148Z,38.60
2019-04-07T05:59:46.024Z,39.37
2019-04-07T06:00:50.332Z,37.60
2019-04-07T06:01:58.473Z,38.27
2019-04-07T06:03:04.503Z,38.03
2019-04-07T06:04:06.711Z,40.87
2019-04-07T06:05:11.111Z,37.33
2019-04-07T06:06:15.843Z,38.40
2019-04-07T06:07:20.301Z,38.93
2019-04-07T06:08:30.237Z,37.13
2019-04-07T06:09:32.917Z,37.80
2019-04-07T06:10:36.991Z,36.33
2019-04-07T06:11:41.558Z,35.27
2019-04-07T06:12:47.930Z,37.23
2019-04-07T06:13:51.934Z,37.77
2019-04-07T06:14:56.400Z,36.30
2019-04-07T06:16:00.657Z,33.77
2019-04-07T06:17:05.010Z,36.70
2019-04-07T06:18:09.387Z,34.93
2019-04-07T06:19:13.673Z,33.63
2019-04-07T06:20:18.856Z,34.37
2019-04-07T06:21:23.411Z,32.60
2019-04-07T06:22:28.377Z,32.20
2019-04-07T06:23:33.151Z,32.17
2019-04-07T06:24:37.516Z,32.27
2019-04-07T06:25:43.313Z,31.70
2019-04-07T06:26:49.672Z,30.13
2019-04-07T06:27:54.279Z,30.63
2019-04-07T06:28:59.117Z,31.13
2019-04-07T06:30:05.938Z,29.50
2019-04-07T06:31:10.567Z,30.13
2019-04-07T06:32:15.363Z,29.90
2019-04-07T06:33:19.947Z,30.03
2019-04-07T06:34:24.934Z,30.07
2019-04-07T06:35:29.238Z,28.27
2019-04-07T06:36:34.035Z,30.10
2019-04-07T06:37:38.663Z,30.10
2019-04-07T06:38:49.325Z,28.70
2019-04-07T06:39:50.605Z,30.03
2019-04-07T06:40:57.735Z,28.40
2019-04-07T06:42:01.503Z,27.90
2019-04-07T06:43:07.472Z,27.40
2019-04-07T06:44:15.863Z,29.63
2019-04-07T06:45:21.779Z,28.87
2019-04-07T06:46:43.903Z,29.67
2019-04-07T06:47:51.865Z,28.80
2019-04-07T06:49:02.852Z,28.33
2019-04-07T06:50:28.183Z,29.17
2019-04-07T06:51:43.488Z,28.77
2019-04-07T06:53:17.018Z,26.10
2019-04-07T06:54:34.230Z,26.77
2019-04-07T06:56:12.757Z,25.40
2019-04-07T06:57:46.525Z,24.90
2019-04-07T06:59:21.993Z,24.90
2019-04-07T07:00:55.960Z,25.20
2019-04-07T07:02:31.798Z,24.17
2019-04-07T07:04:01.815Z,24.03
2019-04-07T07:05:28.795Z,24.23
2019-04-07T07:06:51.474Z,25.27
2019-04-07T07:08:08.470Z,23.50
2019-04-07T07:09:41.706Z,105.63
2019-04-07T07:10:58.454Z,27.73
2019-04-07T07:12:27.088Z,35.00
2019-04-07T07:13:46.498Z,29.92
2019-04-07T07:15:12.822Z,31.65
2019-04-07T07:16:41.317Z,23.47
2019-04-07T07:18:11.370Z,23.00
2019-04-07T07:19:41.216Z,23.18
2019-04-07T07:21:03.980Z,22.98
2019-04-07T07:22:28.424Z,24.37
2019-04-07T07:23:36.356Z,22.90
2019-04-07T07:24:40.609Z,22.10
2019-04-07T07:25:45.423Z,22.52
2019-04-07T07:26:50.361Z,22.95
2019-04-07T07:27:54.651Z,23.15
2019-04-07T07:28:58.939Z,21.23
2019-04-07T07:30:03.260Z,22.32
2019-04-07T07:31:07.821Z,20.95
2019-04-07T07:32:12.633Z,21.77
2019-04-07T07:33:16.949Z,21.87
2019-04-07T07:34:21.217Z,21.33
2019-04-07T07:35:25.598Z,24.45
2019-04-07T07:36:30.020Z,20.62
2019-04-07T07:37:34.239Z,25.32
2019-04-07T07:38:38.565Z,19.92
2019-04-07T07:39:45.112Z,19.57
2019-04-07T07:40:49.359Z,19.67
2019-04-07T07:41:55.039Z,19.60
2019-04-07T07:42:59.578Z,21.90
2019-04-07T07:44:07.430Z,20.17
2019-04-07T07:45:12.882Z,20.57
2019-04-07T07:46:18.180Z,19.15
2019-04-07T07:47:22.657Z,20.05
2019-04-07T07:48:28.404Z,20.75
2019-04-07T07:49:35.210Z,19.82
2019-04-07T07:50:40.303Z,19.80
2019-04-07T07:51:47.512Z,20.75
2019-04-07T07:52:53.372Z,21.12
2019-04-07T07:53:59.089Z,23.22
2019-04-07T07:55:03.635Z,20.37
2019-04-07T07:56:11.475Z,19.85
2019-04-07T07:57:14.473Z,19.73
2019-04-07T07:58:19.409Z,21.07
2019-04-07T07:59:24.140Z,21.35
2019-04-07T08:00:28.465Z,26.62
2019-04-07T08:01:33.206Z,23.18
2019-04-07T08:02:37.600Z,30.08
2019-04-07T08:03:42.514Z,41.35
2019-04-07T08:04:47.899Z,26.35
2019-04-07T08:05:52.263Z,21.85
2019-04-07T08:06:57.037Z,19.15
2019-04-07T08:08:01.772Z,19.27
2019-04-07T08:09:13.688Z,29.05
2019-04-07T08:10:14.613Z,43.83
2019-04-07T08:11:18.988Z,19.57
2019-04-07T08:12:23.815Z,22.55
2019-04-07T08:13:28.986Z,18.02
2019-04-07T08:14:33.837Z,18.35
2019-04-07T08:15:38.370Z,21.02
2019-04-07T08:16:43.517Z,19.92
2019-04-07T08:17:48.557Z,40.92
2019-04-07T08:18:52.795Z,68.87
2019-04-07T08:19:57.631Z,28.95
2019-04-07T08:21:02.198Z,19.65
2019-04-07T08:22:07.734Z,19.87
2019-04-07T08:23:13.406Z,23.38
2019-04-07T08:24:19.149Z,23.45
2019-04-07T08:25:24.825Z,31.27
2019-04-07T08:26:29.983Z,35.30
2019-04-07T08:27:34.430Z,26.15
2019-04-07T08:28:39.207Z,19.17
2019-04-07T08:29:43.499Z,17.85
2019-04-07T08:30:47.776Z,25.48
2019-04-07T08:31:55.213Z,21.52
2019-04-07T08:33:00.246Z,23.87
2019-04-07T08:34:03.813Z,19.17
2019-04-07T08:35:08.106Z,48.70
2019-04-07T08:36:13.845Z,28.38
2019-04-07T08:37:19.019Z,32.93
2019-04-07T08:38:25.869Z,25.08
2019-04-07T08:39:34.084Z,38.42
2019-04-07T08:40:36.837Z,22.10
2019-04-07T08:41:42.455Z,25.97
2019-04-07T08:42:49.075Z,60.55
2019-04-07T08:43:55.336Z,30.12
2019-04-07T08:45:00.447Z,18.02
2019-04-07T08:46:05.893Z,25.00
2019-04-07T08:47:12.878Z,23.00
2019-04-07T08:48:18.266Z,23.83
2019-04-07T08:49:24.007Z,21.35
2019-04-07T08:50:28.692Z,20.45
2019-04-07T08:51:33.627Z,20.57
2019-04-07T08:52:40.749Z,33.90
2019-04-07T08:53:45.012Z,19.10
2019-04-07T08:54:51.648Z,18.65
2019-04-07T08:55:55.330Z,19.23
2019-04-07T08:57:00.219Z,46.70
2019-04-07T08:58:05.674Z,30.15
2019-04-07T08:59:13.920Z,19.05
2019-04-07T09:00:21.976Z,17.92
2019-04-07T09:01:28.758Z,18.62
2019-04-07T09:02:32.264Z,20.80
2019-04-07T09:03:36.591Z,28.10
2019-04-07T09:04:41.282Z,17.95
2019-04-07T09:05:45.699Z,24.35
2019-04-07T09:06:50.306Z,16.73
2019-04-07T09:07:55.029Z,17.40
2019-04-07T09:09:00.399Z,20.62
2019-04-07T09:10:07.092Z,24.02
2019-04-07T09:11:14.617Z,18.40
2019-04-07T09:12:18.933Z,29.72
2019-04-07T09:13:24.021Z,17.10
2019-04-07T09:14:28.442Z,17.37
2019-04-07T09:15:43.569Z,25.88
2019-04-07T09:17:05.975Z,18.87
2019-04-07T09:18:17.136Z,17.57
2019-04-07T09:19:44.177Z,16.10
2019-04-07T09:20:53.818Z,17.62
2019-04-07T09:22:30.678Z,16.90
2019-04-07T09:24:00.317Z,17.70
2019-04-07T09:25:31.977Z,27.05
2019-04-07T09:26:42.917Z,22.48
2019-04-07T09:28:08.808Z,16.55
2019-04-07T09:29:37.739Z,20.23
2019-04-07T09:30:48.332Z,15.80
2019-04-07T09:31:57.676Z,17.65
2019-04-07T09:33:13.686Z,17.82
2019-04-07T09:34:40.352Z,19.07
2019-04-07T09:36:08.104Z,16.20
2019-04-07T09:37:41.564Z,18.35
2019-04-07T09:38:56.978Z,20.23
2019-04-07T09:40:20.157Z,18.87
2019-04-07T09:41:55.778Z,19.12
2019-04-07T09:43:19.742Z,15.98
2019-04-07T09:44:42.137Z,16.25
2019-04-07T09:46:09.013Z,15.48
2019-04-07T09:47:29.207Z,15.40
2019-04-07T09:48:58.782Z,20.90
2019-04-07T09:50:28.808Z,17.70
2019-04-07T09:51:58.696Z,16.23
2019-04-07T09:53:21.497Z,15.40
2019-04-07T09:54:43.852Z,17.48
2019-04-07T09:56:19.162Z,18.87
2019-04-07T09:58:01.286Z,17.70
2019-04-07T09:59:19.275Z,15.25
2019-04-07T10:00:40.970Z,19.62
2019-04-07T10:02:10.380Z,15.10
2019-04-07T10:03:38.090Z,15.13
2019-04-07T10:04:58.670Z,23.05
2019-04-07T10:06:16.797Z,16.05
2019-04-07T10:07:33.636Z,15.55
2019-04-07T10:08:50.907Z,16.70
2019-04-07T10:10:12.970Z,13.62
2019-04-07T10:11:41.944Z,18.98
2019-04-07T10:13:05.548Z,19.95
2019-04-07T10:14:38.715Z,22.05
2019-04-07T10:16:07.670Z,14.58
2019-04-07T10:17:28.960Z,19.98
2019-04-07T10:18:53.341Z,16.42
2019-04-07T10:20:16.477Z,15.93
2019-04-07T10:21:46.093Z,17.80
2019-04-07T10:23:03.228Z,17.37
2019-04-07T10:24:22.416Z,17.20
2019-04-07T10:25:48.183Z,18.52
2019-04-07T10:27:14.686Z,17.05
2019-04-07T10:28:41.586Z,20.35
2019-04-07T10:29:54.550Z,19.25
2019-04-07T10:31:13.824Z,16.45
2019-04-07T10:32:43.107Z,15.53
2019-04-07T10:34:13.285Z,17.15
2019-04-07T10:35:28.423Z,17.37
2019-04-07T10:36:51.119Z,17.05
2019-04-07T10:38:03.918Z,17.17
2019-04-07T10:39:37.093Z,17.75
2019-04-07T10:41:00.951Z,17.45
2019-04-07T10:42:24.670Z,15.68
2019-04-07T10:43:41.227Z,16.85
2019-04-07T10:45:00.402Z,16.42
2019-04-07T10:46:22.685Z,20.05
2019-04-07T10:47:36.823Z,17.17
2019-04-07T10:49:00.275Z,16.75
2019-04-07T10:50:18.403Z,20.30
2019-04-07T10:51:42.031Z,17.98
2019-04-07T10:52:56.184Z,17.12
2019-04-07T10:54:28.694Z,16.65
2019-04-07T10:55:45.228Z,16.77
2019-04-07T10:57:07.444Z,18.17
2019-04-07T10:58:31.264Z,17.45
2019-04-07T10:59:59.360Z,17.37
2019-04-07T11:01:22.534Z,16.90
2019-04-07T11:02:44.288Z,16.15
2019-04-07T11:04:07.544Z,19.17
2019-04-07T11:05:37.189Z,16.85
2019-04-07T11:07:08.501Z,17.35
2019-04-07T11:08:23.247Z,16.73
2019-04-07T11:09:36.755Z,16.55
2019-04-07T11:10:59.991Z,20.10
2019-04-07T11:12:35.736Z,16.70
2019-04-07T11:14:13.893Z,18.20
2019-04-07T11:15:27.793Z,19.60
2019-04-07T11:17:09.979Z,18.98
2019-04-07T11:18:25.259Z,19.90
2019-04-07T11:19:48.927Z,19.40
2019-04-07T11:21:11.084Z,20.02
2019-04-07T11:22:36.047Z,20.43
2019-04-07T11:23:55.921Z,19.67
2019-04-07T11:25:10.831Z,18.00
2019-04-07T11:26:37.487Z,18.90
2019-04-07T11:28:06.747Z,16.73
2019-04-07T11:29:17.747Z,19.35
2019-04-07T11:30:39.845Z,18.25
2019-04-07T11:31:51.545Z,17.12
2019-04-07T11:33:15.013Z,17.35
2019-04-07T11:34:38.980Z,19.00
2019-04-07T11:36:08.415Z,17.65
2019-04-07T11:37:19.029Z,16.73
2019-04-07T11:38:35.339Z,17.27
2019-04-07T11:39:52.301Z,16.90
2019-04-07T11:41:24.139Z,17.98
2019-04-07T11:42:44.947Z,18.82
2019-04-07T11:43:56.534Z,17.95
2019-04-07T11:45:12.643Z,18.37
2019-04-07T11:46:42.112Z,18.75
2019-04-07T11:48:10.073Z,18.57
2019-04-07T11:49:23.025Z,18.45
2019-04-07T11:50:50.507Z,17.82
2019-04-07T11:52:14.540Z,16.80
2019-04-07T11:53:38.277Z,16.97
2019-04-07T11:55:13.885Z,17.87
2019-04-07T11:56:38.308Z,17.32
2019-04-07T11:58:15.642Z,17.42
2019-04-07T11:59:33.908Z,17.57
2019-04-07T12:01:00.633Z,18.73
2019-04-07T12:02:33.387Z,18.07
2019-04-07T12:03:59.976Z,18.55
2019-04-07T12:05:36.684Z,18.70
2019-04-07T12:07:19.114Z,87.02
2019-04-07T12:08:39.464Z,20.40
2019-04-07T12:10:03.039Z,175.22
2019-04-07T12:11:28.830Z,21.33
2019-04-07T12:12:58.111Z,17.05
2019-04-07T12:14:28.711Z,18.00
2019-04-07T12:15:42.038Z,16.37
2019-04-07T12:17:09.393Z,17.70
2019-04-07T12:18:23.391Z,16.48
2019-04-07T12:19:36.656Z,17.27
2019-04-07T12:21:05.230Z,17.90
2019-04-07T12:22:36.656Z,18.62
2019-04-07T12:23:52.769Z,17.25
2019-04-07T12:25:20.028Z,17.73
2019-04-07T12:26:39.513Z,16.70
2019-04-07T12:28:03.509Z,17.05
2019-04-07T12:29:42.815Z,16.73
2019-04-07T12:30:54.516Z,16.30
2019-04-07T12:32:26.896Z,15.98
2019-04-07T12:33:38.619Z,15.28
2019-04-07T12:34:50.938Z,14.68
2019-04-07T12:36:31.062Z,14.58
2019-04-07T12:38:12.310Z,15.25
2019-04-07T12:39:43.381Z,15.55
2019-04-07T12:41:15.206Z,15.18
2019-04-07T12:42:31.534Z,15.18
2019-04-07T12:43:54.054Z,15.38
2019-04-07T12:45:23.553Z,15.30
2019-04-07T12:46:46.474Z,15.13
2019-04-07T12:48:09.189Z,15.43
2019-04-07T12:49:45.789Z,14.10
2019-04-07T12:51:09.512Z,17.67
2019-04-07T12:52:32.549Z,22.98
2019-04-07T12:53:48.051Z,17.12
2019-04-07T12:55:16.004Z,16.73
2019-04-07T12:56:32.340Z,16.23
2019-04-07T12:57:47.717Z,15.25
2019-04-07T12:59:09.002Z,16.05
2019-04-07T13:00:25.164Z,14.50
2019-04-07T13:01:54.578Z,13.55
2019-04-07T13:03:24.264Z,12.78
2019-04-07T13:04:53.579Z,15.13
2019-04-07T13:06:14.768Z,14.47
2019-04-07T13:07:38.768Z,13.03
2019-04-07T13:08:57.169Z,14.65
2019-04-07T13:10:10.487Z,14.13
2019-04-07T13:11:31.241Z,14.83
2019-04-07T13:12:44.769Z,12.63
2019-04-07T13:14:08.708Z,14.93
2019-04-07T13:15:31.474Z,16.45
2019-04-07T13:17:02.708Z,16.27
2019-04-07T13:18:36.226Z,16.07
2019-04-07T13:19:50.304Z,17.75
2019-04-07T13:21:02.227Z,18.07
2019-04-07T13:22:35.489Z,16.95
2019-04-07T13:24:06.189Z,15.75
2019-04-07T13:25:22.596Z,17.52
2019-04-07T13:26:47.129Z,15.78
2019-04-07T13:28:28.751Z,15.60
2019-04-07T13:29:41.282Z,15.08
2019-04-07T13:31:07.475Z,16.50
2019-04-07T13:32:40.947Z,17.60
2019-04-07T13:34:14.598Z,15.18
2019-04-07T13:35:32.042Z,15.38
2019-04-07T13:36:54.234Z,16.27
2019-04-07T13:38:16.475Z,15.05
2019-04-07T13:39:48.667Z,13.08
2019-04-07T13:41:17.759Z,13.72
2019-04-07T13:42:40.716Z,13.98
2019-04-07T13:44:10.698Z,13.43
2019-04-07T13:45:42.076Z,13.65
2019-04-07T13:47:09.475Z,13.95
2019-04-07T13:48:33.377Z,13.93
2019-04-07T13:49:59.560Z,14.85
2019-04-07T13:51:30.797Z,14.13
2019-04-07T13:52:48.641Z,14.93
2019-04-07T13:54:12.380Z,15.40
2019-04-07T13:55:40.854Z,15.00
2019-04-07T13:57:10.168Z,14.85
2019-04-07T13:58:33.093Z,14.23
2019-04-07T14:00:15.860Z,13.68
2019-04-07T14:01:50.515Z,15.85
2019-04-07T14:03:02.340Z,14.98
2019-04-07T14:04:30.162Z,15.15
2019-04-07T14:05:43.026Z,13.93
2019-04-07T14:06:52.400Z,14.23
2019-04-07T14:08:13.972Z,14.33
2019-04-07T14:09:40.656Z,15.15
2019-04-07T14:10:55.362Z,15.63
2019-04-07T14:12:12.808Z,13.78
2019-04-07T14:13:41.890Z,14.30
2019-04-07T14:15:05.222Z,15.60
2019-04-07T14:16:22.487Z,14.63
2019-04-07T14:17:49.241Z,13.98
2019-04-07T14:19:12.390Z,13.75
2019-04-07T14:20:42.452Z,14.23
2019-04-07T14:21:54.518Z,13.88
2019-04-07T14:23:36.977Z,14.07
2019-04-07T14:24:56.037Z,12.78
2019-04-07T14:26:26.747Z,13.15
2019-04-07T14:28:08.968Z,14.45
2019-04-07T14:29:37.486Z,14.33
2019-04-07T14:30:59.822Z,14.33
2019-04-07T14:32:29.508Z,14.10
2019-04-07T14:33:49.166Z,14.53
2019-04-07T14:35:11.007Z,14.80
2019-04-07T14:36:23.731Z,15.08
2019-04-07T14:37:42.921Z,13.65
2019-04-07T14:38:58.986Z,14.58
2019-04-07T14:40:13.841Z,14.10
2019-04-07T14:42:01.626Z,14.47
2019-04-07T14:43:07.047Z,14.47
2019-04-07T14:44:36.954Z,13.62
2019-04-07T14:45:50.508Z,14.80
2019-04-07T14:47:27.199Z,13.95
2019-04-07T14:48:40.245Z,13.22
2019-04-07T14:50:11.748Z,14.15
2019-04-07T14:51:32.991Z,13.00
2019-04-07T14:52:47.099Z,13.28
2019-04-07T14:54:20.346Z,13.95
2019-04-07T14:55:38.385Z,13.58
2019-04-07T14:57:01.042Z,13.20
2019-04-07T14:58:17.389Z,14.07
2019-04-07T14:59:48.529Z,14.43
2019-04-07T15:01:12.651Z,12.58
2019-04-07T15:02:17.133Z,13.75
2019-04-07T15:03:21.538Z,12.33
2019-04-07T15:04:45.489Z,11.97
2019-04-07T15:05:50.620Z,12.70
2019-04-07T15:07:11.907Z,13.78
2019-04-07T15:08:35.547Z,14.58
2019-04-07T15:09:46.990Z,13.10
2019-04-07T15:10:53.843Z,13.70
2019-04-07T15:12:22.781Z,15.17
2019-04-07T15:13:27.964Z,13.97
2019-04-07T15:14:32.713Z,13.23
2019-04-07T15:15:36.871Z,16.17
2019-04-07T15:16:41.240Z,14.33
2019-04-07T15:17:45.604Z,13.90
2019-04-07T15:18:51.174Z,15.00
2019-04-07T15:19:56.035Z,13.57
2019-04-07T15:21:00.541Z,15.33
2019-04-07T15:22:06.557Z,14.23
2019-04-07T15:23:11.115Z,13.97
2019-04-07T15:24:15.503Z,13.68
2019-04-07T15:25:19.726Z,14.43
2019-04-07T15:26:24.664Z,14.37
2019-04-07T15:27:29.016Z,14.07
2019-04-07T15:28:34.039Z,13.73
2019-04-07T15:29:40.776Z,14.07
2019-04-07T15:30:47.936Z,12.83
2019-04-07T15:31:51.852Z,14.40
2019-04-07T15:32:58.608Z,13.43
2019-04-07T15:34:06.482Z,13.00
2019-04-07T15:35:11.941Z,12.80
2019-04-07T15:36:17.409Z,13.27
2019-04-07T15:37:23.547Z,12.83
2019-04-07T15:38:27.162Z,12.87
2019-04-07T15:39:32.347Z,13.13
2019-04-07T15:40:36.704Z,12.83
2019-04-07T15:41:43.363Z,14.40
2019-04-07T15:42:50.593Z,15.77
2019-04-07T15:43:54.875Z,12.67
2019-04-07T15:44:59.094Z,14.90
2019-04-07T15:46:03.450Z,15.23
2019-04-07T15:47:07.652Z,15.20
2019-04-07T15:48:12.454Z,15.67
2019-04-07T15:49:16.704Z,15.10
2019-04-07T15:50:21.493Z,14.33
2019-04-07T15:51:26.315Z,14.40
2019-04-07T15:52:31.936Z,14.30
2019-04-07T15:53:36.919Z,14.33
2019-04-07T15:54:42.250Z,16.00
2019-04-07T15:55:54.632Z,15.50
2019-04-07T15:56:54.032Z,17.23
2019-04-07T15:57:59.449Z,18.27